Etusivu
METAR-TAF:

METAR-TAF

Lentoasemat :

Visalia Municipal Airport

Visalia, Kalifornia, Yhdysvallat

Leveyspiiri: 36-19N, Pituuspiiri: 119-24W, korkeus merenpinnasta: 89 m

Tämänhetkinen sää

Tämä raportti tehtiin 27 minuuttia sitten, kello 07.56 UTC
tyyntä
Lämpötila 16°C
Kosteus 63%
Ilmanpaine 1018 hPa
Näkyvyys: 16.1 km
Hajanaisia pilviä 7000 ft:n korkeudessa

METAR: KVIS 220756Z AUTO 00000KT 10SM SCT070 16/09 A3005 RMK AO2 SLP181 T01560094 402220072

Aika: 01:23 (08:23 UTC)

Sääennuste

Tämä raportti tehtiin 3 tuntia ja 2 minuuttia sitten, kello 05.21 UTC
Ennuste voimassa 22. päivästä klo 06 UTC - 23. päivään klo 06 UTC
Tuuli 3 kn eri suunnista
Näkyvyys: 10 km
selkeää

TAF: KVIS 220521Z 2206/2306 VRB03KT P6SM SKC

Säähavainnot ja -ennusteet yli 4000 lentoasemalta (METAR- ja TAF-raportit).

Käytössä olevat sääasemat on merkitty karttaan keltaisilla ja punaisilla pisteillä.

Aseta hiiri pisteen päälle nähdäksesi sääaseman nimen.

Klikkaa sitten nähdäksesi säähavainnot ja -ennusteet.

Kartan vaihtaminen: klikkaa mustalla rastilla varustettuja vihreitä pisteitä, niin voit zoomata sisään; viivalla varustettua vihreää pistettä, niin voit zoomata ulos tai vihreitä nuolia, niin pääset viereisille kartoille.


METAR-TAF: